createdAt,value
2023-03-22T00:01:45.504Z,99077.58
2023-03-22T00:07:49.654Z,99065.97
2023-03-22T00:13:51.852Z,99065.25
2023-03-22T00:19:54.031Z,99063.48
2023-03-22T00:25:56.494Z,99061.46
2023-03-22T00:31:57.964Z,99055.27
2023-03-22T00:38:13.404Z,99048.23
2023-03-22T00:44:14.951Z,99049.61
2023-03-22T00:50:19.637Z,99054.55
2023-03-22T00:56:24.819Z,99052.35
2023-03-22T01:02:34.347Z,99047.84
2023-03-22T01:08:38.239Z,99043.88
2023-03-22T01:14:40.161Z,99038.88
2023-03-22T01:20:42.053Z,99028.30
2023-03-22T01:26:46.180Z,99024.39
2023-03-22T01:32:47.836Z,99015.10
2023-03-22T01:38:49.888Z,99009.73
2023-03-22T01:45:26.789Z,98995.79
2023-03-22T01:51:28.474Z,98992.10
2023-03-22T01:57:53.924Z,98978.86
2023-03-22T02:04:33.298Z,98968.86
2023-03-22T02:10:36.374Z,98964.09
2023-03-22T02:16:50.724Z,98960.23
2023-03-22T02:23:05.215Z,98954.54
2023-03-22T02:29:34.871Z,98950.86
2023-03-22T02:35:53.467Z,98948.14
2023-03-22T02:42:14.122Z,98945.09
2023-03-22T02:48:18.448Z,98946.16
2023-03-22T02:54:45.302Z,98945.39
2023-03-22T03:00:50.341Z,98936.72
2023-03-22T03:06:58.330Z,98939.73
2023-03-22T03:13:00.240Z,98939.75
2023-03-22T03:19:15.777Z,98945.25
2023-03-22T03:26:04.287Z,98946.42
2023-03-22T03:32:19.340Z,98952.33
2023-03-22T03:38:25.715Z,98954.98
2023-03-22T03:44:32.533Z,98945.94
2023-03-22T03:50:43.231Z,98951.58
2023-03-22T03:56:47.075Z,98949.41
2023-03-22T04:02:48.936Z,98951.73
2023-03-22T04:09:12.946Z,98961.48
2023-03-22T04:15:17.598Z,98961.88
2023-03-22T04:21:22.234Z,98965.11
2023-03-22T04:27:35.195Z,98962.27
2023-03-22T04:33:46.202Z,98964.48
2023-03-22T04:39:59.856Z,98966.59
2023-03-22T04:46:12.122Z,98971.94
2023-03-22T04:52:18.444Z,98974.70
2023-03-22T04:58:27.115Z,98982.52
2023-03-22T05:04:28.685Z,98987.05
2023-03-22T05:10:39.727Z,98986.59
2023-03-22T05:16:41.565Z,98985.52
2023-03-22T05:22:44.809Z,98992.83
2023-03-22T05:28:46.844Z,98990.42
2023-03-22T05:34:55.489Z,98985.27
2023-03-22T05:41:02.951Z,98989.83
2023-03-22T05:47:06.217Z,98988.13
2023-03-22T05:53:11.188Z,98983.77
2023-03-22T05:59:34.146Z,98984.88
2023-03-22T06:05:36.780Z,98989.15
2023-03-22T06:11:38.541Z,98988.86
2023-03-22T06:17:41.693Z,98987.02
2023-03-22T06:23:44.535Z,98994.34
2023-03-22T06:29:50.073Z,98996.15
2023-03-22T06:35:53.506Z,98994.21
2023-03-22T06:42:02.761Z,98996.96
2023-03-22T06:48:04.885Z,98989.99
2023-03-22T06:54:12.661Z,98982.02
2023-03-22T07:00:15.292Z,98982.66
2023-03-22T07:06:16.875Z,98986.64
2023-03-22T07:12:21.808Z,98986.61
2023-03-22T07:18:24.806Z,98987.35
2023-03-22T07:24:26.356Z,98987.34
2023-03-22T07:30:28.366Z,98997.88
2023-03-22T07:36:31.028Z,98991.77
2023-03-22T07:42:33.939Z,98990.55
2023-03-22T07:48:57.902Z,98984.39
2023-03-22T07:55:18.168Z,98980.89
2023-03-22T08:01:20.864Z,98976.38
2023-03-22T08:07:36.923Z,98977.06
2023-03-22T08:13:38.859Z,98976.76
2023-03-22T08:19:43.125Z,98974.38
2023-03-22T08:25:46.315Z,98965.80
2023-03-22T08:31:48.303Z,98965.52
2023-03-22T08:37:53.996Z,98955.80
2023-03-22T08:43:56.858Z,98955.33
2023-03-22T08:49:58.385Z,98957.73
2023-03-22T08:56:09.383Z,98955.60
2023-03-22T09:02:26.289Z,98956.35
2023-03-22T09:08:29.270Z,98953.78
2023-03-22T09:14:38.220Z,98946.81
2023-03-22T09:20:40.673Z,98942.38
2023-03-22T09:26:43.057Z,98937.30
2023-03-22T09:32:44.731Z,98925.09
2023-03-22T09:38:49.330Z,98919.66
2023-03-22T09:44:52.030Z,98919.77
2023-03-22T09:50:57.223Z,98910.30
2023-03-22T09:57:02.353Z,98907.20
2023-03-22T10:03:28.523Z,98898.84
2023-03-22T10:09:48.667Z,98890.45
2023-03-22T10:15:55.158Z,98890.55
2023-03-22T10:21:57.493Z,98883.37
2023-03-22T10:27:59.054Z,98882.92
2023-03-22T10:34:05.537Z,98878.92
2023-03-22T10:40:35.045Z,98866.28
2023-03-22T10:46:38.869Z,98860.66
2023-03-22T10:52:47.268Z,98861.09
2023-03-22T10:58:49.986Z,98851.67
2023-03-22T11:04:53.877Z,98845.64
2023-03-22T11:10:59.645Z,98838.72
2023-03-22T11:17:14.701Z,98832.15
2023-03-22T11:23:17.327Z,98825.48
2023-03-22T11:29:18.855Z,98815.69
2023-03-22T11:41:48.430Z,98811.35
2023-03-22T11:47:50.603Z,98804.44
2023-03-22T11:53:56.509Z,98800.85
2023-03-22T12:00:19.309Z,98797.00
2023-03-22T12:06:27.481Z,98787.30
2023-03-22T12:12:36.427Z,98783.45
2023-03-22T12:18:44.311Z,98778.21
2023-03-22T12:24:46.007Z,98775.95
2023-03-22T12:30:50.850Z,98771.11
2023-03-22T12:36:55.766Z,98766.92
2023-03-22T12:43:20.765Z,98757.98
2023-03-22T12:49:28.607Z,98747.80
2023-03-22T12:55:33.199Z,98749.11
2023-03-22T13:02:01.906Z,98742.52
2023-03-22T13:08:04.961Z,98742.86
2023-03-22T13:14:06.723Z,98738.06
2023-03-22T13:20:11.548Z,98734.48
2023-03-22T13:26:14.660Z,98728.98
2023-03-22T13:32:53.335Z,98723.34
2023-03-22T13:39:04.598Z,98714.36
2023-03-22T13:45:32.693Z,98707.54
2023-03-22T13:51:34.808Z,98700.82
2023-03-22T13:57:58.274Z,98697.25
2023-03-22T14:04:03.360Z,98688.13
2023-03-22T14:10:44.624Z,98673.35
2023-03-22T14:16:48.909Z,98668.46
